createdAt,value
2023-02-03T00:01:44.010Z,8.69
2023-02-03T00:04:10.514Z,8.65
2023-02-03T00:06:37.155Z,8.63
2023-02-03T00:09:03.772Z,8.60
2023-02-03T00:11:30.807Z,8.56
2023-02-03T00:13:57.300Z,8.53
2023-02-03T00:16:23.882Z,8.51
2023-02-03T00:18:50.431Z,8.49
2023-02-03T00:21:16.949Z,8.49
2023-02-03T00:23:43.590Z,8.49
2023-02-03T00:26:12.913Z,8.47
2023-02-03T00:28:41.804Z,8.51
2023-02-03T00:31:22.258Z,8.50
2023-02-03T00:33:54.266Z,8.54
2023-02-03T00:36:20.823Z,8.56
2023-02-03T00:38:47.314Z,8.60
2023-02-03T00:41:13.779Z,8.63
2023-02-03T00:43:40.302Z,8.68
2023-02-03T00:46:07.853Z,8.70
2023-02-03T00:48:35.160Z,8.70
2023-02-03T00:51:01.664Z,8.73
2023-02-03T00:53:28.206Z,8.74
2023-02-03T00:55:54.907Z,8.77
2023-02-03T00:58:22.250Z,8.79
2023-02-03T01:00:48.852Z,8.81
2023-02-03T01:03:16.521Z,8.83
2023-02-03T01:05:43.001Z,8.86
2023-02-03T01:08:09.524Z,8.89
2023-02-03T01:10:38.221Z,8.87
2023-02-03T01:13:04.724Z,8.92
2023-02-03T01:15:31.297Z,8.91
2023-02-03T01:17:57.763Z,8.89
2023-02-03T01:20:24.520Z,8.91
2023-02-03T01:22:51.166Z,8.90
2023-02-03T01:25:17.769Z,8.90
2023-02-03T01:27:44.255Z,8.88
2023-02-03T01:30:11.425Z,8.86
2023-02-03T01:32:37.978Z,8.86
2023-02-03T01:35:04.804Z,8.86
2023-02-03T01:37:31.325Z,8.86
2023-02-03T01:39:57.843Z,8.82
2023-02-03T01:42:24.376Z,8.84
2023-02-03T01:44:52.021Z,8.83
2023-02-03T01:47:23.175Z,8.80
2023-02-03T01:50:30.645Z,8.81
2023-02-03T01:53:02.654Z,8.80
2023-02-03T01:55:37.362Z,8.73
2023-02-03T01:58:15.806Z,8.76
2023-02-03T02:00:43.712Z,8.71
2023-02-03T02:03:10.836Z,8.67
2023-02-03T02:05:52.503Z,8.56
2023-02-03T02:08:20.378Z,8.58
2023-02-03T02:10:47.087Z,8.57
2023-02-03T02:13:15.563Z,8.53
2023-02-03T02:15:57.336Z,8.52
2023-02-03T02:18:58.233Z,8.45
2023-02-03T02:21:48.792Z,8.49
2023-02-03T02:24:24.453Z,8.49
2023-02-03T02:26:57.438Z,8.46
2023-02-03T02:29:26.990Z,8.47
2023-02-03T02:32:18.394Z,8.46
2023-02-03T02:34:54.080Z,8.46
2023-02-03T02:37:33.413Z,8.46
2023-02-03T02:40:07.426Z,8.45
2023-02-03T02:42:42.686Z,8.44
2023-02-03T02:45:16.109Z,8.48
2023-02-03T02:47:45.022Z,8.51
2023-02-03T02:50:19.225Z,8.52
2023-02-03T02:52:48.578Z,8.55
2023-02-03T02:55:20.679Z,8.57
2023-02-03T02:57:48.398Z,8.58
2023-02-03T03:00:18.027Z,8.61
2023-02-03T03:02:44.650Z,8.62
2023-02-03T03:05:12.370Z,8.62
2023-02-03T03:07:50.727Z,8.56
2023-02-03T03:10:23.022Z,8.61
2023-02-03T03:12:54.575Z,8.56
2023-02-03T03:15:25.055Z,8.58
2023-02-03T03:17:59.182Z,8.65
2023-02-03T03:20:27.177Z,8.65
2023-02-03T03:23:05.815Z,8.71
2023-02-03T03:25:41.804Z,8.71
2023-02-03T03:28:15.079Z,8.75
2023-02-03T03:30:42.166Z,8.83
2023-02-03T03:33:09.579Z,8.82
2023-02-03T03:35:43.810Z,8.85
2023-02-03T03:38:34.172Z,8.83
2023-02-03T03:41:23.347Z,8.86
2023-02-03T03:43:52.937Z,8.86
2023-02-03T03:46:29.931Z,8.84
2023-02-03T03:49:03.690Z,8.88
2023-02-03T03:51:46.220Z,8.88
2023-02-03T03:54:16.453Z,8.84
2023-02-03T03:56:52.972Z,8.90
2023-02-03T03:59:22.298Z,8.87
2023-02-03T04:01:50.967Z,8.88
2023-02-03T04:04:19.549Z,8.91
2023-02-03T04:06:46.088Z,8.93
2023-02-03T04:09:12.581Z,8.93
2023-02-03T04:11:39.073Z,8.93
2023-02-03T04:14:05.588Z,8.94
2023-02-03T04:16:32.159Z,8.93
2023-02-03T04:18:58.683Z,8.93
2023-02-03T04:21:25.142Z,8.94
2023-02-03T04:23:51.613Z,8.93
2023-02-03T04:26:18.145Z,8.94
2023-02-03T04:28:44.831Z,8.96
2023-02-03T04:31:11.459Z,8.94
2023-02-03T04:33:37.992Z,8.97
2023-02-03T04:36:04.674Z,9.00
2023-02-03T04:38:31.217Z,9.00
2023-02-03T04:40:57.701Z,9.02
2023-02-03T04:43:24.237Z,9.04
2023-02-03T04:45:50.854Z,9.04
2023-02-03T04:48:17.363Z,9.05
2023-02-03T04:50:43.897Z,9.04
2023-02-03T04:53:10.450Z,9.03
2023-02-03T04:55:36.925Z,9.04
2023-02-03T04:58:03.560Z,9.04
2023-02-03T05:00:30.361Z,9.06
2023-02-03T05:02:57.104Z,9.07
2023-02-03T05:05:23.746Z,9.09
2023-02-03T05:07:50.244Z,9.08
2023-02-03T05:10:16.825Z,9.10
2023-02-03T05:12:43.291Z,9.11
2023-02-03T05:15:10.135Z,9.11
2023-02-03T05:17:36.656Z,9.11
2023-02-03T05:20:03.233Z,9.13
2023-02-03T05:22:29.754Z,9.14
2023-02-03T05:24:56.211Z,9.14
2023-02-03T05:27:22.727Z,9.14
2023-02-03T05:29:49.175Z,9.14
2023-02-03T05:32:15.667Z,9.14
2023-02-03T05:34:42.474Z,9.13
2023-02-03T05:37:08.978Z,9.13
2023-02-03T05:39:35.429Z,9.13
2023-02-03T05:42:01.924Z,9.13
2023-02-03T05:44:29.040Z,9.13
2023-02-03T05:46:58.911Z,9.12
2023-02-03T05:49:26.052Z,9.13
2023-02-03T05:51:54.304Z,9.12
2023-02-03T05:54:21.467Z,9.13
2023-02-03T05:56:47.990Z,9.12
2023-02-03T05:59:14.764Z,9.11
2023-02-03T06:01:41.333Z,9.12
2023-02-03T06:04:08.026Z,9.10
2023-02-03T06:06:34.833Z,9.12
2023-02-03T06:09:02.812Z,9.12
2023-02-03T06:11:30.251Z,9.12
2023-02-03T06:13:57.508Z,9.14
2023-02-03T06:16:27.933Z,9.13
2023-02-03T06:18:56.036Z,9.13
2023-02-03T06:21:22.529Z,9.14
2023-02-03T06:23:48.985Z,9.15
2023-02-03T06:26:15.570Z,9.14
2023-02-03T06:28:42.042Z,9.14
2023-02-03T06:31:08.774Z,9.15
2023-02-03T06:33:35.558Z,9.16
2023-02-03T06:36:02.070Z,9.18
2023-02-03T06:38:28.558Z,9.17
2023-02-03T06:40:55.027Z,9.17
2023-02-03T06:43:21.529Z,9.16
2023-02-03T06:45:48.133Z,9.15
2023-02-03T06:48:15.308Z,9.14
2023-02-03T06:50:41.867Z,9.14
2023-02-03T06:53:08.391Z,9.12
2023-02-03T06:55:34.849Z,9.10
2023-02-03T06:58:01.329Z,9.11
2023-02-03T07:00:28.253Z,9.09
2023-02-03T07:02:56.587Z,9.08
2023-02-03T07:05:24.630Z,9.08
2023-02-03T07:07:51.957Z,9.06
2023-02-03T07:10:18.629Z,9.06
2023-02-03T07:12:45.336Z,9.06
2023-02-03T07:15:12.967Z,9.04
2023-02-03T07:17:39.487Z,9.03
2023-02-03T07:20:06.291Z,9.01
2023-02-03T07:22:32.814Z,9.00
2023-02-03T07:24:59.335Z,8.99
2023-02-03T07:27:26.364Z,8.99
2023-02-03T07:29:52.872Z,8.98
2023-02-03T07:32:19.360Z,9.00
2023-02-03T07:34:45.945Z,9.00
2023-02-03T07:37:12.453Z,9.01
2023-02-03T07:39:38.873Z,9.01
2023-02-03T07:42:05.428Z,9.03
2023-02-03T07:44:36.787Z,9.05
2023-02-03T07:47:03.274Z,9.04
2023-02-03T07:49:29.727Z,9.05
2023-02-03T07:51:56.273Z,9.05
2023-02-03T07:54:22.697Z,9.05
2023-02-03T07:56:49.220Z,9.04
2023-02-03T07:59:17.196Z,9.05
2023-02-03T08:01:43.859Z,9.01
2023-02-03T08:04:10.421Z,9.01
2023-02-03T08:06:36.935Z,9.04
2023-02-03T08:09:03.466Z,9.05
2023-02-03T08:11:29.991Z,9.06
2023-02-03T08:13:56.584Z,9.06
2023-02-03T08:16:23.119Z,9.07
2023-02-03T08:18:49.707Z,9.06
2023-02-03T08:21:16.197Z,9.07
2023-02-03T08:23:42.860Z,9.11
2023-02-03T08:26:09.541Z,9.12
2023-02-03T08:28:36.161Z,9.15
2023-02-03T08:31:10.084Z,9.17
2023-02-03T08:33:36.701Z,9.23
2023-02-03T08:36:05.147Z,9.21
2023-02-03T08:38:32.208Z,9.29
2023-02-03T08:40:58.830Z,9.33
2023-02-03T08:43:25.331Z,9.37
2023-02-03T08:45:52.135Z,9.40
2023-02-03T08:48:18.938Z,9.46
2023-02-03T08:50:45.382Z,9.51
2023-02-03T08:53:11.938Z,9.57
2023-02-03T08:55:39.848Z,9.62
2023-02-03T08:58:06.413Z,9.75
2023-02-03T09:00:32.919Z,9.86
2023-02-03T09:02:59.415Z,10.03
2023-02-03T09:05:25.905Z,10.19
2023-02-03T09:07:52.441Z,10.36
2023-02-03T09:10:18.946Z,10.54
2023-02-03T09:12:45.451Z,10.72
2023-02-03T09:15:11.948Z,10.87
2023-02-03T09:17:38.505Z,11.01
2023-02-03T09:20:05.827Z,11.16
2023-02-03T09:22:32.456Z,11.30
2023-02-03T09:24:59.073Z,11.40
2023-02-03T09:27:25.689Z,11.46
2023-02-03T09:29:52.453Z,11.56
2023-02-03T09:32:19.036Z,11.66
2023-02-03T09:34:45.539Z,11.79
2023-02-03T09:37:12.140Z,11.93
2023-02-03T09:39:38.668Z,12.05
2023-02-03T09:42:34.431Z,12.17
2023-02-03T09:45:01.032Z,12.26
2023-02-03T09:47:32.731Z,12.34
2023-02-03T09:50:02.573Z,12.45
2023-02-03T09:52:35.727Z,12.49
2023-02-03T09:55:11.233Z,12.51
2023-02-03T09:57:44.588Z,12.52
2023-02-03T10:00:26.486Z,12.58
2023-02-03T10:02:56.000Z,12.68
2023-02-03T10:05:44.451Z,12.75
2023-02-03T10:08:45.090Z,12.85
2023-02-03T10:11:23.741Z,12.91
2023-02-03T10:14:06.889Z,12.92
2023-02-03T10:16:48.813Z,13.02
2023-02-03T10:19:26.628Z,13.05
2023-02-03T10:21:58.830Z,13.07
2023-02-03T10:24:40.849Z,13.09
2023-02-03T10:27:20.610Z,13.12
2023-02-03T10:29:54.695Z,13.15
2023-02-03T10:32:21.267Z,13.18
2023-02-03T10:34:48.024Z,13.21
2023-02-03T10:37:30.471Z,13.23
2023-02-03T10:39:59.253Z,13.20
2023-02-03T10:42:25.989Z,13.20
2023-02-03T10:44:53.404Z,13.21
2023-02-03T10:47:26.152Z,13.18
2023-02-03T10:49:55.302Z,13.15
2023-02-03T10:52:47.961Z,13.08
2023-02-03T10:55:26.670Z,13.04
2023-02-03T10:57:54.472Z,12.96
2023-02-03T11:00:27.962Z,12.86
2023-02-03T11:03:26.530Z,12.82
2023-02-03T11:06:07.529Z,12.79
2023-02-03T11:08:35.839Z,12.74
2023-02-03T11:11:05.426Z,12.69
2023-02-03T11:13:32.580Z,12.69
2023-02-03T11:16:06.820Z,12.70
2023-02-03T11:19:04.373Z,12.69
2023-02-03T11:21:46.476Z,12.70
2023-02-03T11:24:20.506Z,12.71
2023-02-03T11:26:57.106Z,12.68
2023-02-03T11:29:26.597Z,12.75
2023-02-03T11:31:55.744Z,12.77
2023-02-03T11:34:25.034Z,12.79
2023-02-03T11:36:52.119Z,12.85
2023-02-03T11:39:27.585Z,12.97
2023-02-03T11:41:55.184Z,13.07
2023-02-03T11:44:27.830Z,13.12
2023-02-03T11:47:09.120Z,13.16
2023-02-03T11:50:02.797Z,13.31
2023-02-03T11:52:40.313Z,13.37
2023-02-03T11:55:31.243Z,13.47
2023-02-03T11:58:25.424Z,13.55
2023-02-03T12:01:28.355Z,13.59
2023-02-03T12:03:54.794Z,13.73
2023-02-03T12:06:29.203Z,13.81
2023-02-03T12:09:28.487Z,13.94
2023-02-03T12:12:29.049Z,14.00
2023-02-03T12:15:14.057Z,14.06
2023-02-03T12:17:52.775Z,14.03
2023-02-03T12:20:31.501Z,13.97
2023-02-03T12:23:17.866Z,13.94
2023-02-03T12:26:10.690Z,13.94
2023-02-03T12:29:15.371Z,13.96
2023-02-03T12:31:49.953Z,14.04
2023-02-03T12:34:31.981Z,14.08
2023-02-03T12:37:06.298Z,14.10
2023-02-03T12:39:40.103Z,14.11
2023-02-03T12:42:15.957Z,14.06
2023-02-03T12:44:46.952Z,14.09
2023-02-03T12:47:22.191Z,14.17
2023-02-03T12:50:06.368Z,14.22
2023-02-03T12:52:47.557Z,14.29
2023-02-03T12:55:32.123Z,14.43
2023-02-03T12:58:04.797Z,14.60
2023-02-03T13:00:49.765Z,14.73
2023-02-03T13:03:41.524Z,14.80
2023-02-03T13:06:16.071Z,14.86
2023-02-03T13:09:16.658Z,15.06
2023-02-03T13:12:06.478Z,15.23
2023-02-03T13:14:40.256Z,15.34
2023-02-03T13:17:12.627Z,15.37
2023-02-03T13:19:58.226Z,15.46
2023-02-03T13:22:24.798Z,15.57
2023-02-03T13:25:09.169Z,15.67
2023-02-03T13:27:57.651Z,15.78
2023-02-03T13:30:52.324Z,15.74
2023-02-03T13:33:45.748Z,15.57
2023-02-03T13:36:23.982Z,15.47
2023-02-03T13:39:18.556Z,15.34
2023-02-03T13:41:51.963Z,15.11
2023-02-03T13:44:25.157Z,15.04
2023-02-03T13:46:52.676Z,14.98
2023-02-03T13:49:37.483Z,14.95
2023-02-03T13:52:04.215Z,14.93
2023-02-03T13:54:35.812Z,14.84
2023-02-03T13:57:05.014Z,14.74
2023-02-03T13:59:37.613Z,14.75
2023-02-03T14:02:40.307Z,14.62
2023-02-03T14:05:29.320Z,14.61
2023-02-03T14:07:55.974Z,14.63
2023-02-03T14:10:23.126Z,14.62
2023-02-03T14:12:49.617Z,14.64
2023-02-03T14:15:29.127Z,14.57
2023-02-03T14:17:58.802Z,14.55
2023-02-03T14:20:25.223Z,14.62
2023-02-03T14:22:57.807Z,14.69
2023-02-03T14:25:25.964Z,14.76
2023-02-03T14:28:00.794Z,14.78
2023-02-03T14:30:27.438Z,14.82
2023-02-03T14:32:56.628Z,14.87
2023-02-03T14:35:38.027Z,14.90
2023-02-03T14:38:08.872Z,14.94
2023-02-03T14:40:42.941Z,14.90
2023-02-03T14:43:30.732Z,14.87
2023-02-03T14:46:15.317Z,14.85
2023-02-03T14:49:00.106Z,14.84
2023-02-03T14:51:29.716Z,14.80
2023-02-03T14:54:33.991Z,14.69
2023-02-03T14:57:30.866Z,14.56
2023-02-03T15:00:18.922Z,14.46
2023-02-03T15:03:07.106Z,14.38
2023-02-03T15:05:38.016Z,14.33
2023-02-03T15:08:04.571Z,14.24
2023-02-03T15:10:43.357Z,14.14
2023-02-03T15:13:31.895Z,14.05
2023-02-03T15:16:03.852Z,13.93
2023-02-03T15:18:34.302Z,13.85
2023-02-03T15:21:00.901Z,13.82
2023-02-03T15:23:38.570Z,13.83
2023-02-03T15:26:13.981Z,13.98
2023-02-03T15:28:40.619Z,14.09
2023-02-03T15:31:20.533Z,14.13
2023-02-03T15:33:48.659Z,14.20
2023-02-03T15:36:32.479Z,14.17
2023-02-03T15:39:16.016Z,14.09
2023-02-03T15:41:43.344Z,14.06
2023-02-03T15:44:23.529Z,13.92
2023-02-03T15:46:53.060Z,13.88
2023-02-03T15:49:30.027Z,13.73
2023-02-03T15:52:03.504Z,13.66
2023-02-03T15:54:41.309Z,13.53
2023-02-03T15:57:19.822Z,13.44
2023-02-03T15:59:55.105Z,13.31
2023-02-03T16:02:31.906Z,13.26
2023-02-03T16:05:03.432Z,13.15
2023-02-03T16:07:30.396Z,13.11
2023-02-03T16:09:58.845Z,13.04
2023-02-03T16:12:29.202Z,12.99
2023-02-03T16:14:57.545Z,12.92
2023-02-03T16:17:23.958Z,12.84
2023-02-03T16:19:51.171Z,12.76
2023-02-03T16:22:35.606Z,12.71
2023-02-03T16:25:26.825Z,12.63
2023-02-03T16:28:06.593Z,12.55
2023-02-03T16:30:33.201Z,12.49
2023-02-03T16:33:08.630Z,12.43
2023-02-03T16:35:35.190Z,12.37
2023-02-03T16:38:12.959Z,12.30
2023-02-03T16:40:39.497Z,12.25
2023-02-03T16:43:12.021Z,12.18
2023-02-03T16:45:38.660Z,12.12
2023-02-03T16:48:05.360Z,12.07
2023-02-03T16:50:38.715Z,12.01
2023-02-03T16:53:12.113Z,11.96
2023-02-03T16:55:38.846Z,11.88
2023-02-03T16:58:05.452Z,11.83
2023-02-03T17:00:31.993Z,11.75
2023-02-03T17:02:58.829Z,11.72
2023-02-03T17:05:25.566Z,11.69
2023-02-03T17:07:52.057Z,11.63
2023-02-03T17:10:18.540Z,11.57
2023-02-03T17:12:45.026Z,11.51
2023-02-03T17:15:11.533Z,11.45
2023-02-03T17:17:38.027Z,11.38
2023-02-03T17:20:04.985Z,11.35
2023-02-03T17:22:31.474Z,11.30
2023-02-03T17:24:58.012Z,11.25
2023-02-03T17:27:24.833Z,11.23
2023-02-03T17:29:51.328Z,11.19
2023-02-03T17:32:17.891Z,11.16
2023-02-03T17:34:44.485Z,11.13
2023-02-03T17:37:10.982Z,11.11
2023-02-03T17:55:49.176Z,10.88
2023-02-03T17:58:15.641Z,10.85
2023-02-03T18:00:42.156Z,10.81
2023-02-03T18:03:08.766Z,10.77
2023-02-03T18:05:35.228Z,10.72
2023-02-03T18:08:08.939Z,10.69
2023-02-03T18:10:43.439Z,10.63
2023-02-03T18:13:10.180Z,10.60
2023-02-03T18:15:37.633Z,10.57
2023-02-03T18:18:04.174Z,10.53
2023-02-03T18:20:30.906Z,10.50
2023-02-03T18:22:57.450Z,10.48
2023-02-03T18:25:23.897Z,10.44
2023-02-03T18:27:50.753Z,10.40
2023-02-03T18:30:17.388Z,10.36
2023-02-03T18:32:44.037Z,10.33
2023-02-03T18:35:10.566Z,10.28
2023-02-03T18:37:37.011Z,10.24
2023-02-03T18:40:03.732Z,10.21
2023-02-03T18:42:30.244Z,10.17
2023-02-03T18:44:56.703Z,10.13
2023-02-03T18:47:23.130Z,10.10
2023-02-03T18:49:49.644Z,10.08
2023-02-03T18:52:16.101Z,10.06
2023-02-03T18:54:42.601Z,10.01
2023-02-03T18:57:09.221Z,9.99
2023-02-03T18:59:35.666Z,9.98
2023-02-03T19:02:02.113Z,9.94
2023-02-03T19:04:28.855Z,9.92
2023-02-03T19:06:55.311Z,9.90
2023-02-03T19:09:21.852Z,9.88
2023-02-03T19:11:48.381Z,9.86
2023-02-03T19:14:14.938Z,9.84
2023-02-03T19:16:41.687Z,9.83
2023-02-03T19:19:08.428Z,9.83
2023-02-03T19:21:35.233Z,9.84
2023-02-03T19:24:01.745Z,9.83
2023-02-03T19:26:28.245Z,9.85
2023-02-03T19:28:55.029Z,9.84
2023-02-03T19:31:21.579Z,9.85
2023-02-03T19:33:48.194Z,9.85
2023-02-03T19:36:14.671Z,9.89
2023-02-03T19:38:41.277Z,9.90
2023-02-03T19:41:07.821Z,9.92
2023-02-03T19:43:34.314Z,9.93
2023-02-03T19:46:00.952Z,9.91
2023-02-03T19:48:27.566Z,9.89
2023-02-03T19:50:54.096Z,9.87
2023-02-03T19:53:20.663Z,9.85
2023-02-03T19:55:47.460Z,9.79
2023-02-03T19:58:14.267Z,9.74
2023-02-03T20:00:41.699Z,9.69
2023-02-03T20:03:08.354Z,9.65
2023-02-03T20:05:35.665Z,9.59
2023-02-03T20:08:02.352Z,9.54
2023-02-03T20:10:29.249Z,9.49
2023-02-03T20:12:55.896Z,9.45
2023-02-03T20:15:22.352Z,9.43
2023-02-03T20:17:49.099Z,9.42
2023-02-03T20:20:19.685Z,9.41
2023-02-03T20:22:47.257Z,9.41
2023-02-03T20:25:13.849Z,9.40
2023-02-03T20:27:40.517Z,9.39
2023-02-03T20:30:07.399Z,9.38
2023-02-03T20:32:34.234Z,9.38
2023-02-03T20:35:00.739Z,9.38
2023-02-03T20:37:27.282Z,9.38
2023-02-03T20:39:53.751Z,9.39
2023-02-03T20:42:20.360Z,9.41
2023-02-03T20:44:47.070Z,9.43
2023-02-03T20:47:16.052Z,9.44
2023-02-03T20:49:42.655Z,9.43
2023-02-03T20:52:17.904Z,9.41
2023-02-03T20:54:44.585Z,9.46
2023-02-03T20:57:16.742Z,9.47
2023-02-03T20:59:44.070Z,9.48
2023-02-03T21:02:24.385Z,9.46
2023-02-03T21:04:50.999Z,9.46
2023-02-03T21:07:17.712Z,9.44
2023-02-03T21:09:44.213Z,9.45
2023-02-03T21:12:12.727Z,9.44
2023-02-03T21:14:42.863Z,9.37
2023-02-03T21:17:19.881Z,9.34
2023-02-03T21:19:47.007Z,9.34
2023-02-03T21:22:17.346Z,9.34
2023-02-03T21:24:50.395Z,9.31
2023-02-03T21:27:30.451Z,9.29
2023-02-03T21:29:59.027Z,9.29
2023-02-03T21:32:38.117Z,9.29
2023-02-03T21:35:35.635Z,9.28
2023-02-03T21:38:24.862Z,9.28
2023-02-03T21:40:51.364Z,9.27
2023-02-03T21:43:18.184Z,9.26
2023-02-03T21:45:45.036Z,9.24
2023-02-03T21:48:28.051Z,9.22
2023-02-03T21:50:56.754Z,9.23
2023-02-03T21:53:27.043Z,9.23
2023-02-03T21:55:54.253Z,9.23
2023-02-03T21:58:28.043Z,9.24
2023-02-03T22:00:56.814Z,9.20
2023-02-03T22:03:38.522Z,9.19
2023-02-03T22:06:07.996Z,9.24
2023-02-03T22:08:49.395Z,9.20
2023-02-03T22:11:17.758Z,9.20
2023-02-03T22:13:44.253Z,9.15
2023-02-03T22:16:11.228Z,9.11
2023-02-03T22:18:37.715Z,9.10
2023-02-03T22:21:04.374Z,9.06
2023-02-03T22:23:30.830Z,9.04
2023-02-03T22:25:57.355Z,9.03
2023-02-03T22:28:24.672Z,9.02
2023-02-03T22:30:51.282Z,9.01
2023-02-03T22:33:18.268Z,9.01
2023-02-03T22:35:46.366Z,9.00
2023-02-03T22:38:12.833Z,9.03
2023-02-03T22:40:39.364Z,9.06
2023-02-03T22:43:05.882Z,9.10
2023-02-03T22:45:32.404Z,9.13
2023-02-03T22:47:58.912Z,9.16
2023-02-03T22:50:35.425Z,9.19
2023-02-03T22:53:02.974Z,9.20
2023-02-03T22:55:29.808Z,9.23
2023-02-03T22:57:56.719Z,9.24
2023-02-03T23:00:25.692Z,9.25
2023-02-03T23:02:52.261Z,9.26
2023-02-03T23:05:19.399Z,9.28
2023-02-03T23:07:46.356Z,9.28
2023-02-03T23:10:20.079Z,9.30
2023-02-03T23:12:46.709Z,9.28
2023-02-03T23:15:13.587Z,9.30
2023-02-03T23:17:40.737Z,9.30
2023-02-03T23:20:08.890Z,9.31
2023-02-03T23:22:35.378Z,9.32
2023-02-03T23:25:01.836Z,9.31
2023-02-03T23:27:28.394Z,9.33
2023-02-03T23:29:54.845Z,9.33
2023-02-03T23:32:21.382Z,9.32
2023-02-03T23:34:47.869Z,9.33
2023-02-03T23:37:14.305Z,9.33
2023-02-03T23:39:40.728Z,9.33
2023-02-03T23:42:07.256Z,9.33
2023-02-03T23:44:33.782Z,9.34
2023-02-03T23:47:00.335Z,9.34
2023-02-03T23:49:26.860Z,9.34
2023-02-03T23:51:53.343Z,9.33
2023-02-03T23:54:19.841Z,9.34
2023-02-03T23:56:46.310Z,9.33
2023-02-03T23:59:12.769Z,9.33
